sensor_id;sensor_type;location;lat;lon;timestamp;P1;durP1;ratioP1;P2;durP2;ratioP2
29196;SDS011;62796;42.654;23.316;2022-11-20T00:01:15;5.72;;;1.23;;
29196;SDS011;62796;42.654;23.316;2022-11-20T00:03:42;2.53;;;1.48;;
29196;SDS011;62796;42.654;23.316;2022-11-20T00:06:09;6.22;;;1.23;;
29196;SDS011;62796;42.654;23.316;2022-11-20T00:08:36;5.38;;;1.35;;
29196;SDS011;62796;42.654;23.316;2022-11-20T00:11:09;7.13;;;1.42;;
29196;SDS011;62796;42.654;23.316;2022-11-20T00:13:39;3.30;;;1.30;;
29196;SDS011;62796;42.654;23.316;2022-11-20T00:16:05;2.72;;;0.90;;
29196;SDS011;62796;42.654;23.316;2022-11-20T00:18:32;5.30;;;0.98;;
29196;SDS011;62796;42.654;23.316;2022-11-20T00:21:02;5.03;;;1.30;;
29196;SDS011;62796;42.654;23.316;2022-11-20T00:23:29;3.13;;;1.20;;
29196;SDS011;62796;42.654;23.316;2022-11-20T00:25:55;4.15;;;1.23;;
29196;SDS011;62796;42.654;23.316;2022-11-20T00:28:21;3.58;;;1.30;;
29196;SDS011;62796;42.654;23.316;2022-11-20T00:30:46;15.68;;;1.85;;
29196;SDS011;62796;42.654;23.316;2022-11-20T00:33:11;3.47;;;1.02;;
29196;SDS011;62796;42.654;23.316;2022-11-20T00:35:37;4.43;;;1.00;;
29196;SDS011;62796;42.654;23.316;2022-11-20T00:38:02;4.05;;;1.48;;
29196;SDS011;62796;42.654;23.316;2022-11-20T00:40:28;2.28;;;1.13;;
29196;SDS011;62796;42.654;23.316;2022-11-20T00:42:53;2.95;;;1.02;;
29196;SDS011;62796;42.654;23.316;2022-11-20T00:45:18;3.47;;;1.10;;
29196;SDS011;62796;42.654;23.316;2022-11-20T00:47:44;3.85;;;1.42;;
29196;SDS011;62796;42.654;23.316;2022-11-20T00:50:09;2.47;;;0.98;;
29196;SDS011;62796;42.654;23.316;2022-11-20T00:52:35;4.70;;;1.15;;
29196;SDS011;62796;42.654;23.316;2022-11-20T00:55:00;3.25;;;1.05;;
29196;SDS011;62796;42.654;23.316;2022-11-20T00:57:25;3.10;;;1.00;;
29196;SDS011;62796;42.654;23.316;2022-11-20T00:59:51;1.83;;;0.75;;
29196;SDS011;62796;42.654;23.316;2022-11-20T01:02:16;3.97;;;1.48;;
29196;SDS011;62796;42.654;23.316;2022-11-20T01:04:42;2.70;;;1.10;;
29196;SDS011;62796;42.654;23.316;2022-11-20T01:07:07;1.75;;;0.90;;
29196;SDS011;62796;42.654;23.316;2022-11-20T01:09:33;3.17;;;1.00;;
29196;SDS011;62796;42.654;23.316;2022-11-20T01:11:58;2.38;;;1.08;;
29196;SDS011;62796;42.654;23.316;2022-11-20T01:14:24;4.97;;;1.27;;
29196;SDS011;62796;42.654;23.316;2022-11-20T01:16:50;6.18;;;0.93;;
29196;SDS011;62796;42.654;23.316;2022-11-20T01:19:20;4.10;;;0.98;;
29196;SDS011;62796;42.654;23.316;2022-11-20T01:21:51;1.70;;;0.90;;
29196;SDS011;62796;42.654;23.316;2022-11-20T01:24:19;4.82;;;1.65;;
29196;SDS011;62796;42.654;23.316;2022-11-20T01:26:47;3.25;;;1.30;;
29196;SDS011;62796;42.654;23.316;2022-11-20T01:29:14;1.88;;;0.90;;
29196;SDS011;62796;42.654;23.316;2022-11-20T01:31:42;3.75;;;1.17;;
29196;SDS011;62796;42.654;23.316;2022-11-20T01:34:12;3.33;;;0.80;;
29196;SDS011;62796;42.654;23.316;2022-11-20T01:36:40;3.40;;;1.00;;
29196;SDS011;62796;42.654;23.316;2022-11-20T01:39:16;1.85;;;0.80;;
29196;SDS011;62796;42.654;23.316;2022-11-20T01:41:44;5.90;;;1.15;;
29196;SDS011;62796;42.654;23.316;2022-11-20T01:47:17;2.35;;;1.00;;
29196;SDS011;62796;42.654;23.316;2022-11-20T01:49:50;3.13;;;1.10;;
29196;SDS011;62796;42.654;23.316;2022-11-20T01:55:09;2.45;;;0.95;;
29196;SDS011;62796;42.654;23.316;2022-11-20T01:57:42;2.10;;;0.90;;
29196;SDS011;62796;42.654;23.316;2022-11-20T02:00:12;2.50;;;0.80;;
29196;SDS011;62796;42.654;23.316;2022-11-20T02:02:41;4.15;;;0.98;;
29196;SDS011;62796;42.654;23.316;2022-11-20T02:08:01;3.92;;;0.93;;
29196;SDS011;62796;42.654;23.316;2022-11-20T02:10:29;5.05;;;1.27;;
29196;SDS011;62796;42.654;23.316;2022-11-20T02:12:54;2.17;;;0.80;;
29196;SDS011;62796;42.654;23.316;2022-11-20T02:18:05;2.03;;;0.70;;
29196;SDS011;62796;42.654;23.316;2022-11-20T02:20:31;6.45;;;0.95;;
29196;SDS011;62796;42.654;23.316;2022-11-20T02:22:59;2.72;;;0.95;;
29196;SDS011;62796;42.654;23.316;2022-11-20T02:25:30;3.65;;;1.00;;
29196;SDS011;62796;42.654;23.316;2022-11-20T02:27:58;3.08;;;1.17;;
29196;SDS011;62796;42.654;23.316;2022-11-20T02:30:23;1.30;;;0.80;;
29196;SDS011;62796;42.654;23.316;2022-11-20T02:32:49;4.00;;;0.80;;
29196;SDS011;62796;42.654;23.316;2022-11-20T02:37:49;2.97;;;1.02;;
29196;SDS011;62796;42.654;23.316;2022-11-20T02:40:17;4.32;;;1.40;;
29196;SDS011;62796;42.654;23.316;2022-11-20T02:42:43;3.50;;;0.82;;
29196;SDS011;62796;42.654;23.316;2022-11-20T02:45:09;8.07;;;1.13;;
29196;SDS011;62796;42.654;23.316;2022-11-20T02:47:35;1.90;;;0.82;;
29196;SDS011;62796;42.654;23.316;2022-11-20T02:50:00;6.40;;;1.27;;
29196;SDS011;62796;42.654;23.316;2022-11-20T02:52:26;5.03;;;1.10;;
29196;SDS011;62796;42.654;23.316;2022-11-20T02:54:52;3.65;;;0.90;;
29196;SDS011;62796;42.654;23.316;2022-11-20T02:57:17;5.45;;;1.00;;
29196;SDS011;62796;42.654;23.316;2022-11-20T02:59:43;5.25;;;1.30;;
29196;SDS011;62796;42.654;23.316;2022-11-20T03:02:08;3.28;;;1.10;;
29196;SDS011;62796;42.654;23.316;2022-11-20T03:04:34;2.22;;;1.13;;
29196;SDS011;62796;42.654;23.316;2022-11-20T03:06:59;4.78;;;1.00;;
29196;SDS011;62796;42.654;23.316;2022-11-20T03:09:25;6.05;;;1.67;;
29196;SDS011;62796;42.654;23.316;2022-11-20T03:11:50;1.88;;;1.08;;
29196;SDS011;62796;42.654;23.316;2022-11-20T03:14:16;4.10;;;1.30;;
29196;SDS011;62796;42.654;23.316;2022-11-20T03:16:41;4.53;;;1.00;;
29196;SDS011;62796;42.654;23.316;2022-11-20T03:19:07;4.80;;;1.20;;
29196;SDS011;62796;42.654;23.316;2022-11-20T03:21:33;1.75;;;1.25;;
29196;SDS011;62796;42.654;23.316;2022-11-20T03:23:59;4.60;;;1.40;;
29196;SDS011;62796;42.654;23.316;2022-11-20T03:26:25;4.35;;;1.13;;
29196;SDS011;62796;42.654;23.316;2022-11-20T03:28:52;1.65;;;1.00;;
29196;SDS011;62796;42.654;23.316;2022-11-20T03:31:24;3.85;;;1.25;;
29196;SDS011;62796;42.654;23.316;2022-11-20T03:33:52;2.03;;;1.00;;
29196;SDS011;62796;42.654;23.316;2022-11-20T03:36:18;4.13;;;1.25;;
29196;SDS011;62796;42.654;23.316;2022-11-20T03:38:44;3.88;;;1.10;;
29196;SDS011;62796;42.654;23.316;2022-11-20T03:41:11;3.38;;;0.98;;
29196;SDS011;62796;42.654;23.316;2022-11-20T03:43:51;2.63;;;1.27;;
29196;SDS011;62796;42.654;23.316;2022-11-20T03:46:17;2.35;;;1.00;;
29196;SDS011;62796;42.654;23.316;2022-11-20T03:48:43;2.33;;;1.00;;
29196;SDS011;62796;42.654;23.316;2022-11-20T03:51:16;4.85;;;1.08;;
29196;SDS011;62796;42.654;23.316;2022-11-20T03:53:44;2.20;;;1.02;;
29196;SDS011;62796;42.654;23.316;2022-11-20T03:56:10;5.55;;;0.82;;
29196;SDS011;62796;42.654;23.316;2022-11-20T03:58:37;5.18;;;1.38;;
29196;SDS011;62796;42.654;23.316;2022-11-20T04:01:11;5.22;;;1.50;;
29196;SDS011;62796;42.654;23.316;2022-11-20T04:03:38;2.05;;;1.05;;
29196;SDS011;62796;42.654;23.316;2022-11-20T04:06:05;2.72;;;1.00;;
29196;SDS011;62796;42.654;23.316;2022-11-20T04:08:35;3.00;;;0.90;;
29196;SDS011;62796;42.654;23.316;2022-11-20T04:13:45;3.78;;;1.10;;
29196;SDS011;62796;42.654;23.316;2022-11-20T04:16:12;4.88;;;1.10;;
29196;SDS011;62796;42.654;23.316;2022-11-20T04:18:38;2.33;;;1.08;;
29196;SDS011;62796;42.654;23.316;2022-11-20T04:21:04;3.47;;;1.15;;
29196;SDS011;62796;42.654;23.316;2022-11-20T04:23:30;2.90;;;0.95;;
29196;SDS011;62796;42.654;23.316;2022-11-20T04:26:00;3.13;;;0.82;;
29196;SDS011;62796;42.654;23.316;2022-11-20T04:28:33;2.80;;;0.80;;
29196;SDS011;62796;42.654;23.316;2022-11-20T04:31:03;1.35;;;0.82;;
29196;SDS011;62796;42.654;23.316;2022-11-20T04:33:29;2.72;;;0.90;;
29196;SDS011;62796;42.654;23.316;2022-11-20T04:35:54;4.13;;;1.13;;
29196;SDS011;62796;42.654;23.316;2022-11-20T04:38:20;2.80;;;1.00;;
29196;SDS011;62796;42.654;23.316;2022-11-20T04:40:45;2.28;;;1.17;;
29196;SDS011;62796;42.654;23.316;2022-11-20T04:43:11;7.53;;;1.15;;
29196;SDS011;62796;42.654;23.316;2022-11-20T04:45:36;1.85;;;1.00;;
29196;SDS011;62796;42.654;23.316;2022-11-20T04:48:01;1.73;;;0.90;;
29196;SDS011;62796;42.654;23.316;2022-11-20T04:50:27;2.78;;;0.90;;
29196;SDS011;62796;42.654;23.316;2022-11-20T04:52:52;3.72;;;0.90;;
29196;SDS011;62796;42.654;23.316;2022-11-20T04:55:18;4.13;;;1.10;;
29196;SDS011;62796;42.654;23.316;2022-11-20T04:57:43;3.28;;;1.17;;
29196;SDS011;62796;42.654;23.316;2022-11-20T05:00:09;6.53;;;0.85;;
29196;SDS011;62796;42.654;23.316;2022-11-20T05:02:34;3.88;;;1.02;;
29196;SDS011;62796;42.654;23.316;2022-11-20T05:05:00;2.50;;;0.82;;
29196;SDS011;62796;42.654;23.316;2022-11-20T05:07:25;4.00;;;1.05;;
29196;SDS011;62796;42.654;23.316;2022-11-20T05:09:51;7.60;;;1.10;;
29196;SDS011;62796;42.654;23.316;2022-11-20T05:12:16;3.20;;;0.80;;
29196;SDS011;62796;42.654;23.316;2022-11-20T05:14:41;2.40;;;0.70;;
29196;SDS011;62796;42.654;23.316;2022-11-20T05:17:09;2.17;;;1.15;;
29196;SDS011;62796;42.654;23.316;2022-11-20T05:19:35;3.63;;;0.70;;
29196;SDS011;62796;42.654;23.316;2022-11-20T05:22:00;1.30;;;1.00;;
29196;SDS011;62796;42.654;23.316;2022-11-20T05:24:26;3.15;;;1.20;;
29196;SDS011;62796;42.654;23.316;2022-11-20T05:26:51;4.93;;;1.23;;
29196;SDS011;62796;42.654;23.316;2022-11-20T05:29:17;3.78;;;1.15;;
29196;SDS011;62796;42.654;23.316;2022-11-20T05:31:42;3.08;;;1.00;;
29196;SDS011;62796;42.654;23.316;2022-11-20T05:34:07;2.28;;;0.95;;
29196;SDS011;62796;42.654;23.316;2022-11-20T05:36:33;5.05;;;0.93;;
29196;SDS011;62796;42.654;23.316;2022-11-20T05:38:59;5.63;;;1.15;;
29196;SDS011;62796;42.654;23.316;2022-11-20T05:41:24;2.88;;;1.10;;
29196;SDS011;62796;42.654;23.316;2022-11-20T05:43:50;4.72;;;1.10;;
29196;SDS011;62796;42.654;23.316;2022-11-20T05:46:19;3.53;;;1.25;;
29196;SDS011;62796;42.654;23.316;2022-11-20T05:48:45;4.55;;;0.90;;
29196;SDS011;62796;42.654;23.316;2022-11-20T05:51:13;4.78;;;0.95;;
29196;SDS011;62796;42.654;23.316;2022-11-20T05:53:40;3.28;;;0.98;;
29196;SDS011;62796;42.654;23.316;2022-11-20T05:56:07;5.13;;;1.30;;
29196;SDS011;62796;42.654;23.316;2022-11-20T05:58:36;4.45;;;1.10;;
29196;SDS011;62796;42.654;23.316;2022-11-20T06:01:06;3.88;;;1.15;;
29196;SDS011;62796;42.654;23.316;2022-11-20T06:03:33;5.57;;;0.85;;
29196;SDS011;62796;42.654;23.316;2022-11-20T06:06:00;5.97;;;1.20;;
29196;SDS011;62796;42.654;23.316;2022-11-20T06:08:26;3.15;;;0.90;;
29196;SDS011;62796;42.654;23.316;2022-11-20T06:10:53;4.50;;;1.20;;
29196;SDS011;62796;42.654;23.316;2022-11-20T06:13:19;4.03;;;1.20;;
29196;SDS011;62796;42.654;23.316;2022-11-20T06:15:50;4.75;;;1.40;;
29196;SDS011;62796;42.654;23.316;2022-11-20T06:18:17;4.88;;;1.23;;
29196;SDS011;62796;42.654;23.316;2022-11-20T06:20:44;5.38;;;1.35;;
29196;SDS011;62796;42.654;23.316;2022-11-20T06:23:09;4.15;;;1.50;;
29196;SDS011;62796;42.654;23.316;2022-11-20T06:25:38;2.25;;;0.75;;
29196;SDS011;62796;42.654;23.316;2022-11-20T06:28:05;5.35;;;1.15;;
29196;SDS011;62796;42.654;23.316;2022-11-20T06:30:30;6.68;;;1.33;;
29196;SDS011;62796;42.654;23.316;2022-11-20T06:32:55;3.95;;;1.10;;
29196;SDS011;62796;42.654;23.316;2022-11-20T06:35:21;3.25;;;0.80;;
29196;SDS011;62796;42.654;23.316;2022-11-20T06:37:46;4.72;;;1.15;;
29196;SDS011;62796;42.654;23.316;2022-11-20T06:40:12;3.80;;;1.42;;
29196;SDS011;62796;42.654;23.316;2022-11-20T06:42:38;4.97;;;0.95;;
29196;SDS011;62796;42.654;23.316;2022-11-20T06:45:03;1.60;;;0.70;;
29196;SDS011;62796;42.654;23.316;2022-11-20T06:47:29;4.80;;;0.88;;
29196;SDS011;62796;42.654;23.316;2022-11-20T06:49:54;2.78;;;0.80;;
29196;SDS011;62796;42.654;23.316;2022-11-20T06:52:20;3.08;;;0.60;;
29196;SDS011;62796;42.654;23.316;2022-11-20T06:54:45;1.92;;;0.63;;
29196;SDS011;62796;42.654;23.316;2022-11-20T06:57:10;2.45;;;0.75;;
29196;SDS011;62796;42.654;23.316;2022-11-20T06:59:36;2.10;;;0.73;;
29196;SDS011;62796;42.654;23.316;2022-11-20T07:02:01;4.85;;;1.25;;
29196;SDS011;62796;42.654;23.316;2022-11-20T07:04:27;2.83;;;0.85;;
29196;SDS011;62796;42.654;23.316;2022-11-20T07:06:52;3.30;;;0.75;;
29196;SDS011;62796;42.654;23.316;2022-11-20T07:09:18;2.17;;;0.82;;
29196;SDS011;62796;42.654;23.316;2022-11-20T07:11:43;4.22;;;0.95;;
29196;SDS011;62796;42.654;23.316;2022-11-20T07:14:08;4.50;;;1.13;;
29196;SDS011;62796;42.654;23.316;2022-11-20T07:16:34;7.78;;;1.08;;
29196;SDS011;62796;42.654;23.316;2022-11-20T07:18:59;3.53;;;0.80;;
29196;SDS011;62796;42.654;23.316;2022-11-20T07:21:25;2.63;;;0.93;;
29196;SDS011;62796;42.654;23.316;2022-11-20T07:23:50;5.63;;;1.00;;
29196;SDS011;62796;42.654;23.316;2022-11-20T07:26:15;4.57;;;0.90;;
29196;SDS011;62796;42.654;23.316;2022-11-20T07:28:43;4.90;;;1.00;;
29196;SDS011;62796;42.654;23.316;2022-11-20T07:31:10;4.65;;;1.27;;
29196;SDS011;62796;42.654;23.316;2022-11-20T07:33:36;4.63;;;1.30;;
29196;SDS011;62796;42.654;23.316;2022-11-20T07:36:02;5.00;;;1.25;;
29196;SDS011;62796;42.654;23.316;2022-11-20T07:38:27;3.78;;;1.08;;
29196;SDS011;62796;42.654;23.316;2022-11-20T07:40:54;6.00;;;1.27;;
29196;SDS011;62796;42.654;23.316;2022-11-20T07:43:20;3.55;;;1.15;;
29196;SDS011;62796;42.654;23.316;2022-11-20T07:45:46;4.97;;;1.38;;
29196;SDS011;62796;42.654;23.316;2022-11-20T07:48:11;5.82;;;1.17;;
29196;SDS011;62796;42.654;23.316;2022-11-20T07:50:36;7.95;;;1.73;;
29196;SDS011;62796;42.654;23.316;2022-11-20T07:53:05;6.40;;;1.27;;
29196;SDS011;62796;42.654;23.316;2022-11-20T07:55:31;5.35;;;1.20;;
29196;SDS011;62796;42.654;23.316;2022-11-20T07:57:57;9.70;;;1.40;;
29196;SDS011;62796;42.654;23.316;2022-11-20T08:00:23;6.32;;;1.40;;
29196;SDS011;62796;42.654;23.316;2022-11-20T08:02:50;7.80;;;1.50;;
29196;SDS011;62796;42.654;23.316;2022-11-20T08:05:15;6.95;;;1.40;;
29196;SDS011;62796;42.654;23.316;2022-11-20T08:07:41;5.13;;;1.42;;
29196;SDS011;62796;42.654;23.316;2022-11-20T08:10:09;4.25;;;1.50;;
29196;SDS011;62796;42.654;23.316;2022-11-20T08:12:42;7.45;;;1.50;;
29196;SDS011;62796;42.654;23.316;2022-11-20T08:15:27;4.55;;;1.40;;
29196;SDS011;62796;42.654;23.316;2022-11-20T08:17:58;8.75;;;1.67;;
29196;SDS011;62796;42.654;23.316;2022-11-20T08:20:31;8.00;;;1.80;;
29196;SDS011;62796;42.654;23.316;2022-11-20T08:22:57;6.38;;;1.73;;
29196;SDS011;62796;42.654;23.316;2022-11-20T08:25:26;5.93;;;1.95;;
29196;SDS011;62796;42.654;23.316;2022-11-20T08:27:53;8.57;;;2.00;;
29196;SDS011;62796;42.654;23.316;2022-11-20T08:30:18;8.75;;;1.58;;
29196;SDS011;62796;42.654;23.316;2022-11-20T08:32:44;7.95;;;1.92;;
29196;SDS011;62796;42.654;23.316;2022-11-20T08:35:09;6.20;;;1.73;;
29196;SDS011;62796;42.654;23.316;2022-11-20T08:37:34;17.23;;;2.78;;
29196;SDS011;62796;42.654;23.316;2022-11-20T08:40:00;11.57;;;2.72;;
29196;SDS011;62796;42.654;23.316;2022-11-20T08:42:25;9.32;;;2.40;;
29196;SDS011;62796;42.654;23.316;2022-11-20T08:44:51;10.75;;;2.10;;
29196;SDS011;62796;42.654;23.316;2022-11-20T08:47:16;8.82;;;1.92;;
29196;SDS011;62796;42.654;23.316;2022-11-20T08:49:41;6.80;;;1.50;;
29196;SDS011;62796;42.654;23.316;2022-11-20T08:52:07;9.10;;;1.80;;
29196;SDS011;62796;42.654;23.316;2022-11-20T08:54:32;6.60;;;1.60;;
29196;SDS011;62796;42.654;23.316;2022-11-20T08:56:58;6.97;;;1.35;;
29196;SDS011;62796;42.654;23.316;2022-11-20T08:59:23;8.05;;;2.35;;
29196;SDS011;62796;42.654;23.316;2022-11-20T09:01:48;8.85;;;1.92;;
29196;SDS011;62796;42.654;23.316;2022-11-20T09:04:14;6.78;;;2.47;;
29196;SDS011;62796;42.654;23.316;2022-11-20T09:06:40;8.55;;;2.40;;
29196;SDS011;62796;42.654;23.316;2022-11-20T09:09:06;7.07;;;2.70;;
29196;SDS011;62796;42.654;23.316;2022-11-20T09:11:31;6.60;;;2.47;;
29196;SDS011;62796;42.654;23.316;2022-11-20T09:13:57;3.72;;;1.83;;
29196;SDS011;62796;42.654;23.316;2022-11-20T09:16:22;7.72;;;2.55;;
29196;SDS011;62796;42.654;23.316;2022-11-20T09:18:49;3.22;;;0.65;;
29196;SDS011;62796;42.654;23.316;2022-11-20T09:21:15;2.33;;;0.75;;
29196;SDS011;62796;42.654;23.316;2022-11-20T09:23:40;6.00;;;1.05;;
29196;SDS011;62796;42.654;23.316;2022-11-20T09:26:09;1.95;;;0.90;;
29196;SDS011;62796;42.654;23.316;2022-11-20T09:28:38;3.10;;;0.85;;
29196;SDS011;62796;42.654;23.316;2022-11-20T09:31:07;2.30;;;0.90;;
29196;SDS011;62796;42.654;23.316;2022-11-20T09:33:33;3.78;;;0.70;;
29196;SDS011;62796;42.654;23.316;2022-11-20T09:36:00;2.03;;;0.70;;
29196;SDS011;62796;42.654;23.316;2022-11-20T09:38:25;1.80;;;0.80;;
29196;SDS011;62796;42.654;23.316;2022-11-20T09:41:04;5.95;;;1.30;;
29196;SDS011;62796;42.654;23.316;2022-11-20T09:48:57;4.70;;;1.50;;
29196;SDS011;62796;42.654;23.316;2022-11-20T09:56:39;5.72;;;2.40;;
29196;SDS011;62796;42.654;23.316;2022-11-20T09:59:40;3.15;;;1.90;;
29196;SDS011;62796;42.654;23.316;2022-11-20T10:02:16;3.75;;;2.00;;
29196;SDS011;62796;42.654;23.316;2022-11-20T10:04:46;4.50;;;2.08;;
29196;SDS011;62796;42.654;23.316;2022-11-20T10:07:17;4.88;;;1.60;;
29196;SDS011;62796;42.654;23.316;2022-11-20T10:09:54;4.95;;;2.45;;
29196;SDS011;62796;42.654;23.316;2022-11-20T10:15:52;8.38;;;3.85;;
29196;SDS011;62796;42.654;23.316;2022-11-20T10:23:45;6.70;;;2.83;;
29196;SDS011;62796;42.654;23.316;2022-11-20T10:29:10;3.38;;;2.20;;
29196;SDS011;62796;42.654;23.316;2022-11-20T10:31:59;6.20;;;2.55;;
29196;SDS011;62796;42.654;23.316;2022-11-20T10:37:34;10.75;;;3.53;;
29196;SDS011;62796;42.654;23.316;2022-11-20T10:42:52;12.32;;;4.32;;
29196;SDS011;62796;42.654;23.316;2022-11-20T10:47:50;18.98;;;11.45;;
29196;SDS011;62796;42.654;23.316;2022-11-20T10:50:26;13.75;;;5.70;;
29196;SDS011;62796;42.654;23.316;2022-11-20T10:53:40;13.65;;;5.70;;
29196;SDS011;62796;42.654;23.316;2022-11-20T10:56:14;13.83;;;7.30;;
29196;SDS011;62796;42.654;23.316;2022-11-20T11:01:42;10.73;;;4.30;;
29196;SDS011;62796;42.654;23.316;2022-11-20T11:04:21;10.10;;;4.10;;
29196;SDS011;62796;42.654;23.316;2022-11-20T11:07:05;8.50;;;4.15;;
29196;SDS011;62796;42.654;23.316;2022-11-20T11:09:38;14.25;;;4.18;;
29196;SDS011;62796;42.654;23.316;2022-11-20T11:12:08;17.50;;;5.43;;
29196;SDS011;62796;42.654;23.316;2022-11-20T11:14:50;2.80;;;0.80;;
29196;SDS011;62796;42.654;23.316;2022-11-20T11:17:22;2.33;;;0.98;;
29196;SDS011;62796;42.654;23.316;2022-11-20T11:20:05;4.22;;;1.48;;
29196;SDS011;62796;42.654;23.316;2022-11-20T11:22:45;2.58;;;1.30;;
29196;SDS011;62796;42.654;23.316;2022-11-20T11:28:01;2.55;;;0.60;;
29196;SDS011;62796;42.654;23.316;2022-11-20T11:30:29;4.28;;;0.93;;
29196;SDS011;62796;42.654;23.316;2022-11-20T11:33:06;1.00;;;0.35;;
29196;SDS011;62796;42.654;23.316;2022-11-20T11:35:38;2.25;;;0.68;;
29196;SDS011;62796;42.654;23.316;2022-11-20T11:38:12;3.75;;;0.82;;
29196;SDS011;62796;42.654;23.316;2022-11-20T11:40:41;2.85;;;0.70;;
29196;SDS011;62796;42.654;23.316;2022-11-20T11:43:16;3.47;;;0.98;;
29196;SDS011;62796;42.654;23.316;2022-11-20T11:46:09;2.85;;;0.52;;
29196;SDS011;62796;42.654;23.316;2022-11-20T11:54:58;5.57;;;1.02;;
29196;SDS011;62796;42.654;23.316;2022-11-20T12:00:08;5.47;;;1.40;;
29196;SDS011;62796;42.654;23.316;2022-11-20T12:02:35;8.13;;;1.30;;
29196;SDS011;62796;42.654;23.316;2022-11-20T12:05:26;3.42;;;0.80;;
29196;SDS011;62796;42.654;23.316;2022-11-20T12:07:59;2.40;;;0.93;;
29196;SDS011;62796;42.654;23.316;2022-11-20T12:15:58;1.75;;;0.77;;
29196;SDS011;62796;42.654;23.316;2022-11-20T12:18:25;5.15;;;0.85;;
29196;SDS011;62796;42.654;23.316;2022-11-20T12:20:58;2.17;;;0.50;;
29196;SDS011;62796;42.654;23.316;2022-11-20T12:46:18;8.27;;;1.65;;
29196;SDS011;62796;42.654;23.316;2022-11-20T12:51:42;5.80;;;2.25;;
29196;SDS011;62796;42.654;23.316;2022-11-20T12:57:11;8.60;;;1.15;;
29196;SDS011;62796;42.654;23.316;2022-11-20T13:00:12;7.32;;;2.83;;
29196;SDS011;62796;42.654;23.316;2022-11-20T13:03:00;8.65;;;2.65;;
29196;SDS011;62796;42.654;23.316;2022-11-20T13:08:20;6.47;;;3.00;;
29196;SDS011;62796;42.654;23.316;2022-11-20T13:10:57;13.73;;;2.50;;
29196;SDS011;62796;42.654;23.316;2022-11-20T13:16:16;8.52;;;3.30;;
29196;SDS011;62796;42.654;23.316;2022-11-20T13:18:48;4.80;;;1.85;;
29196;SDS011;62796;42.654;23.316;2022-11-20T13:21:18;10.18;;;1.92;;
29196;SDS011;62796;42.654;23.316;2022-11-20T13:29:47;7.75;;;3.90;;
29196;SDS011;62796;42.654;23.316;2022-11-20T13:32:47;12.30;;;3.90;;
29196;SDS011;62796;42.654;23.316;2022-11-20T13:35:54;8.85;;;3.75;;
29196;SDS011;62796;42.654;23.316;2022-11-20T13:38:19;9.73;;;4.30;;
29196;SDS011;62796;42.654;23.316;2022-11-20T13:43:42;13.82;;;5.68;;
29196;SDS011;62796;42.654;23.316;2022-11-20T13:46:09;12.15;;;4.63;;
29196;SDS011;62796;42.654;23.316;2022-11-20T13:48:41;8.95;;;4.43;;
29196;SDS011;62796;42.654;23.316;2022-11-20T13:59:17;10.00;;;3.83;;
29196;SDS011;62796;42.654;23.316;2022-11-20T14:01:48;8.73;;;4.28;;
29196;SDS011;62796;42.654;23.316;2022-11-20T14:04:15;10.02;;;4.70;;
29196;SDS011;62796;42.654;23.316;2022-11-20T14:06:45;11.70;;;4.28;;
29196;SDS011;62796;42.654;23.316;2022-11-20T14:09:27;7.55;;;4.28;;
29196;SDS011;62796;42.654;23.316;2022-11-20T14:11:54;11.38;;;3.25;;
29196;SDS011;62796;42.654;23.316;2022-11-20T14:14:21;15.20;;;9.23;;
29196;SDS011;62796;42.654;23.316;2022-11-20T14:16:51;14.65;;;8.80;;
29196;SDS011;62796;42.654;23.316;2022-11-20T14:21:47;14.57;;;6.25;;
29196;SDS011;62796;42.654;23.316;2022-11-20T14:24:13;9.52;;;4.47;;
29196;SDS011;62796;42.654;23.316;2022-11-20T14:26:43;12.60;;;5.80;;
29196;SDS011;62796;42.654;23.316;2022-11-20T14:29:14;9.10;;;4.65;;
29196;SDS011;62796;42.654;23.316;2022-11-20T14:34:32;15.77;;;7.10;;
29196;SDS011;62796;42.654;23.316;2022-11-20T14:36:58;12.90;;;5.68;;
29196;SDS011;62796;42.654;23.316;2022-11-20T14:39:35;12.43;;;6.03;;
29196;SDS011;62796;42.654;23.316;2022-11-20T14:42:02;12.63;;;7.35;;
29196;SDS011;62796;42.654;23.316;2022-11-20T14:44:39;7.18;;;4.30;;
29196;SDS011;62796;42.654;23.316;2022-11-20T14:47:04;6.80;;;3.35;;
29196;SDS011;62796;42.654;23.316;2022-11-20T14:49:30;6.07;;;3.42;;
29196;SDS011;62796;42.654;23.316;2022-11-20T14:52:10;8.60;;;3.38;;
29196;SDS011;62796;42.654;23.316;2022-11-20T14:54:48;5.30;;;3.50;;
29196;SDS011;62796;42.654;23.316;2022-11-20T14:57:25;6.15;;;3.40;;
29196;SDS011;62796;42.654;23.316;2022-11-20T15:02:31;4.68;;;3.33;;
29196;SDS011;62796;42.654;23.316;2022-11-20T15:04:57;6.75;;;4.53;;
29196;SDS011;62796;42.654;23.316;2022-11-20T15:07:28;11.98;;;4.35;;
29196;SDS011;62796;42.654;23.316;2022-11-20T15:10:00;7.40;;;4.78;;
29196;SDS011;62796;42.654;23.316;2022-11-20T15:12:25;9.90;;;6.18;;
29196;SDS011;62796;42.654;23.316;2022-11-20T15:14:51;9.50;;;5.50;;
29196;SDS011;62796;42.654;23.316;2022-11-20T15:17:16;9.52;;;3.85;;
29196;SDS011;62796;42.654;23.316;2022-11-20T15:19:41;9.48;;;4.28;;
29196;SDS011;62796;42.654;23.316;2022-11-20T15:22:09;8.75;;;4.40;;
29196;SDS011;62796;42.654;23.316;2022-11-20T15:24:41;6.57;;;4.03;;
29196;SDS011;62796;42.654;23.316;2022-11-20T15:27:07;6.25;;;3.78;;
29196;SDS011;62796;42.654;23.316;2022-11-20T15:29:34;8.32;;;4.28;;
29196;SDS011;62796;42.654;23.316;2022-11-20T15:32:00;9.95;;;5.60;;
29196;SDS011;62796;42.654;23.316;2022-11-20T15:34:26;6.80;;;4.18;;
29196;SDS011;62796;42.654;23.316;2022-11-20T15:36:51;8.57;;;5.10;;
29196;SDS011;62796;42.654;23.316;2022-11-20T15:39:18;8.23;;;4.60;;
29196;SDS011;62796;42.654;23.316;2022-11-20T15:41:43;7.95;;;4.60;;
29196;SDS011;62796;42.654;23.316;2022-11-20T15:44:09;8.95;;;5.32;;
29196;SDS011;62796;42.654;23.316;2022-11-20T15:46:38;9.60;;;5.60;;
29196;SDS011;62796;42.654;23.316;2022-11-20T15:49:16;10.73;;;6.15;;
29196;SDS011;62796;42.654;23.316;2022-11-20T15:51:44;8.88;;;4.65;;
29196;SDS011;62796;42.654;23.316;2022-11-20T15:54:17;4.82;;;2.60;;
29196;SDS011;62796;42.654;23.316;2022-11-20T15:56:45;6.82;;;3.10;;
29196;SDS011;62796;42.654;23.316;2022-11-20T15:59:12;5.30;;;2.85;;
29196;SDS011;62796;42.654;23.316;2022-11-20T16:01:39;7.40;;;2.70;;
29196;SDS011;62796;42.654;23.316;2022-11-20T16:04:05;11.18;;;4.50;;
29196;SDS011;62796;42.654;23.316;2022-11-20T16:06:34;8.57;;;3.53;;
29196;SDS011;62796;42.654;23.316;2022-11-20T16:08:59;7.13;;;3.67;;
29196;SDS011;62796;42.654;23.316;2022-11-20T16:11:25;12.43;;;3.95;;
29196;SDS011;62796;42.654;23.316;2022-11-20T16:13:50;8.68;;;4.18;;
29196;SDS011;62796;42.654;23.316;2022-11-20T16:16:35;7.10;;;3.75;;
29196;SDS011;62796;42.654;23.316;2022-11-20T16:19:02;7.60;;;3.28;;
29196;SDS011;62796;42.654;23.316;2022-11-20T16:21:28;4.68;;;2.58;;
29196;SDS011;62796;42.654;23.316;2022-11-20T16:24:03;5.05;;;2.33;;
29196;SDS011;62796;42.654;23.316;2022-11-20T16:26:30;7.53;;;2.25;;
29196;SDS011;62796;42.654;23.316;2022-11-20T16:28:58;4.20;;;2.33;;
29196;SDS011;62796;42.654;23.316;2022-11-20T16:31:24;7.13;;;2.58;;
29196;SDS011;62796;42.654;23.316;2022-11-20T16:33:50;4.22;;;2.70;;
29196;SDS011;62796;42.654;23.316;2022-11-20T16:36:19;5.95;;;2.70;;
29196;SDS011;62796;42.654;23.316;2022-11-20T16:38:46;7.07;;;2.90;;
29196;SDS011;62796;42.654;23.316;2022-11-20T16:41:11;17.73;;;7.22;;
29196;SDS011;62796;42.654;23.316;2022-11-20T16:43:46;44.00;;;30.60;;
29196;SDS011;62796;42.654;23.316;2022-11-20T16:46:13;15.85;;;9.10;;
29196;SDS011;62796;42.654;23.316;2022-11-20T16:48:40;10.23;;;6.32;;